createdAt,value
2019-05-30T01:43:40.032Z,91.30
2019-05-30T02:04:44.953Z,92.00
2019-05-30T02:07:37.560Z,92.40
2019-05-30T02:10:17.366Z,91.80
2019-05-30T02:12:56.836Z,90.10
2019-05-30T02:15:31.162Z,91.40
2019-05-30T02:21:28.719Z,91.10
2019-05-30T02:30:03.258Z,87.40
2019-05-30T02:32:55.501Z,90.10
2019-05-30T02:44:41.269Z,84.90
2019-05-30T02:47:33.753Z,88.00
2019-05-30T02:50:01.293Z,85.00
2019-05-30T02:52:31.230Z,83.20
2019-05-30T02:55:03.877Z,86.30
2019-05-30T03:00:56.738Z,84.10
2019-05-30T03:06:56.497Z,82.80
2019-05-30T03:39:25.709Z,78.50
2019-05-30T03:48:28.472Z,79.00
2019-05-30T03:51:19.171Z,77.10
2019-05-30T03:58:08.046Z,79.60
2019-05-30T04:01:10.115Z,79.30
2019-05-30T04:03:47.827Z,79.40
2019-05-30T04:06:45.248Z,80.80
2019-05-30T04:11:53.880Z,76.70
2019-05-30T04:13:05.293Z,78.20
2019-05-30T04:25:23.398Z,79.00
2019-05-30T04:35:41.821Z,78.00
2019-05-30T04:41:23.106Z,73.80
2019-05-30T04:50:58.639Z,74.00
2019-05-30T04:53:12.246Z,74.80
2019-05-30T05:02:45.309Z,74.10
2019-05-30T05:11:26.914Z,71.90
2019-05-30T05:17:16.941Z,73.20
2019-05-30T05:19:51.143Z,71.60
2019-05-30T05:25:03.963Z,72.40
2019-05-30T05:30:48.114Z,69.30
2019-05-30T05:30:51.537Z,71.20
2019-05-30T05:36:30.339Z,74.00
2019-05-30T05:36:56.034Z,76.10
2019-05-30T05:55:29.149Z,74.50
2019-05-30T05:58:08.499Z,71.00
2019-05-30T06:00:40.937Z,73.60
2019-05-30T06:03:24.465Z,72.20
2019-05-30T06:06:07.308Z,71.60
2019-05-30T06:11:24.650Z,75.30
2019-05-30T06:14:00.133Z,72.50
2019-05-30T06:16:42.414Z,74.50
2019-05-30T06:19:10.097Z,73.50
2019-05-30T06:21:54.733Z,72.50
2019-05-30T06:24:50.888Z,73.20
2019-05-30T06:27:23.895Z,72.10
2019-05-30T06:33:12.927Z,72.60
2019-05-30T06:35:43.795Z,72.70
2019-05-30T06:38:33.745Z,72.80
2019-05-30T06:41:21.483Z,74.90
2019-05-30T06:45:11.249Z,77.30
2019-05-30T06:49:39.207Z,77.40
2019-05-30T06:58:01.295Z,82.30
2019-05-30T07:00:37.200Z,83.80
2019-05-30T07:03:14.017Z,81.80
2019-05-30T07:05:53.230Z,85.00
2019-05-30T07:09:19.371Z,78.90
2019-05-30T07:11:17.878Z,76.70
2019-05-30T07:14:09.769Z,79.20
2019-05-30T07:16:45.070Z,79.30
2019-05-30T07:19:21.845Z,75.30
2019-05-30T07:25:01.791Z,75.30
2019-05-30T07:27:40.053Z,74.30
2019-05-30T07:30:13.028Z,74.80
2019-05-30T07:35:28.033Z,73.90
2019-05-30T07:35:41.992Z,74.70
2019-05-30T07:38:40.280Z,73.10
2019-05-30T07:43:57.662Z,72.00
2019-05-30T07:46:28.921Z,68.40
2019-05-30T07:50:14.368Z,68.90
2019-05-30T07:51:51.933Z,69.20
2019-05-30T07:54:30.995Z,69.00
2019-05-30T07:57:26.133Z,70.80
2019-05-30T08:00:08.160Z,71.00
2019-05-30T08:05:24.096Z,71.40
2019-05-30T08:07:52.114Z,71.40
2019-05-30T08:10:28.295Z,71.70
2019-05-30T08:12:59.294Z,70.80
2019-05-30T08:15:33.499Z,67.10
2019-05-30T08:18:04.461Z,67.70
2019-05-30T08:20:35.943Z,68.60
2019-05-30T08:23:10.065Z,67.60
2019-05-30T08:25:44.682Z,68.40
2019-05-30T08:28:16.703Z,66.10
2019-05-30T08:30:50.195Z,69.10
2019-05-30T08:33:21.622Z,68.10
2019-05-30T08:35:52.743Z,70.00
2019-05-30T08:38:27.158Z,69.30
2019-05-30T08:40:57.915Z,72.90
2019-05-30T08:43:29.293Z,72.90
2019-05-30T08:46:02.524Z,72.30
2019-05-30T08:48:34.461Z,72.10
2019-05-30T08:51:04.415Z,71.80
2019-05-30T08:53:36.330Z,72.70
2019-05-30T08:56:08.419Z,72.30
2019-05-30T08:58:38.737Z,73.20
2019-05-30T09:01:09.598Z,71.50
2019-05-30T09:03:42.118Z,74.00
2019-05-30T09:06:22.122Z,73.80
2019-05-30T09:11:51.219Z,72.50
2019-05-30T09:14:21.889Z,73.90
2019-05-30T09:16:52.995Z,73.60
2019-05-30T09:19:26.723Z,73.00
2019-05-30T09:22:13.242Z,73.90
2019-05-30T09:24:47.929Z,71.00
2019-05-30T09:27:19.368Z,73.50
2019-05-30T09:29:50.529Z,70.90
2019-05-30T09:32:26.815Z,74.10
2019-05-30T09:34:58.266Z,72.90
2019-05-30T09:37:36.419Z,73.80
2019-05-30T09:40:23.335Z,73.20
2019-05-30T09:42:55.424Z,74.00
2019-05-30T09:45:25.230Z,76.20
2019-05-30T09:48:07.471Z,75.90
2019-05-30T09:50:43.911Z,75.80
2019-05-30T09:53:14.882Z,77.30
2019-05-30T09:55:51.593Z,75.00
2019-05-30T09:58:21.976Z,76.60
2019-05-30T10:01:27.626Z,77.30
2019-05-30T10:04:00.102Z,79.10
2019-05-30T10:06:33.502Z,77.90
2019-05-30T10:09:04.409Z,78.80
2019-05-30T10:11:45.531Z,78.60
2019-05-30T10:14:13.457Z,78.90
2019-05-30T10:16:51.948Z,80.00
2019-05-30T10:19:18.457Z,80.90
2019-05-30T10:21:57.289Z,81.60
2019-05-30T10:24:28.620Z,81.50
2019-05-30T10:27:01.083Z,81.10
2019-05-30T10:29:32.152Z,82.30
2019-05-30T10:32:03.079Z,83.00
2019-05-30T10:34:33.882Z,84.10
2019-05-30T10:37:04.725Z,83.80
2019-05-30T10:39:38.468Z,80.10
2019-05-30T10:42:24.905Z,79.70
2019-05-30T10:45:09.694Z,78.80
2019-05-30T10:51:15.772Z,77.70
2019-05-30T10:54:02.479Z,77.40
2019-05-30T10:56:33.520Z,77.70
2019-05-30T10:59:14.390Z,78.80
2019-05-30T11:02:00.083Z,78.70
2019-05-30T11:04:31.093Z,78.90
2019-05-30T11:07:28.310Z,78.90
2019-05-30T11:10:13.676Z,79.00
2019-05-30T11:12:44.635Z,79.20
2019-05-30T11:15:15.454Z,79.50
2019-05-30T11:17:47.273Z,79.80
2019-05-30T11:20:17.507Z,80.60
2019-05-30T11:22:49.828Z,80.20
2019-05-30T11:25:22.384Z,81.40
2019-05-30T11:27:53.235Z,81.80
2019-05-30T11:30:24.068Z,81.50
2019-05-30T11:32:55.173Z,82.10
2019-05-30T11:35:26.524Z,82.80
2019-05-30T11:37:57.834Z,83.70
2019-05-30T11:40:28.730Z,84.30
2019-05-30T11:43:01.278Z,85.30
2019-05-30T11:45:32.363Z,84.90
2019-05-30T11:48:03.265Z,85.10
2019-05-30T11:50:34.223Z,85.20
2019-05-30T11:53:05.157Z,87.00
2019-05-30T11:55:35.969Z,87.10
2019-05-30T11:58:06.940Z,87.20
2019-05-30T12:00:37.981Z,87.80
2019-05-30T12:03:12.731Z,87.00
2019-05-30T12:05:43.408Z,84.00
2019-05-30T12:08:14.329Z,80.80
2019-05-30T12:10:45.179Z,81.10
2019-05-30T12:13:16.226Z,82.30
2019-05-30T12:15:47.202Z,81.70
2019-05-30T12:18:18.136Z,83.00
2019-05-30T12:20:48.963Z,83.60
2019-05-30T12:23:19.790Z,85.20
2019-05-30T12:25:51.861Z,86.20
2019-05-30T12:28:56.030Z,87.80
2019-05-30T12:31:04.452Z,87.10
2019-05-30T12:36:11.767Z,88.70
2019-05-30T12:38:42.680Z,89.30
2019-05-30T12:41:15.303Z,89.70
2019-05-30T12:43:46.304Z,89.60
2019-05-30T12:46:19.566Z,89.00
2019-05-30T12:54:39.761Z,89.00
2019-05-30T13:00:00.948Z,90.00
2019-05-30T13:02:31.177Z,90.60
2019-05-30T13:05:04.374Z,90.60
2019-05-30T13:10:42.383Z,90.10
2019-05-30T13:13:37.520Z,90.30
2019-05-30T13:16:09.130Z,90.80
2019-05-30T13:18:48.122Z,90.60
2019-05-30T13:21:21.124Z,90.30
2019-05-30T13:23:50.252Z,90.70
2019-05-30T13:26:39.208Z,90.80
2019-05-30T13:29:32.917Z,90.60
2019-05-30T13:35:19.124Z,90.00
2019-05-30T13:37:59.188Z,89.60
2019-05-30T13:40:35.505Z,89.90
2019-05-30T13:43:09.880Z,90.40
2019-05-30T13:46:00.163Z,91.00
2019-05-30T13:51:25.081Z,91.20
2019-05-30T14:00:02.168Z,92.30
2019-05-30T14:02:37.817Z,92.10
2019-05-30T14:05:25.994Z,92.40
2019-05-30T14:08:16.444Z,92.10
2019-05-30T14:13:31.808Z,92.50
2019-05-30T14:16:26.678Z,92.70
2019-05-30T14:19:16.826Z,93.20
2019-05-30T14:22:03.139Z,93.10
2019-05-30T14:25:24.747Z,93.30
2019-05-30T14:27:32.501Z,93.00
2019-05-30T14:30:38.541Z,93.40
2019-05-30T14:33:47.808Z,93.40
2019-05-30T14:36:24.497Z,93.40
2019-05-30T14:39:11.200Z,93.40
2019-05-30T14:42:03.427Z,93.60
2019-05-30T14:44:47.819Z,93.60
2019-05-30T14:50:17.286Z,93.80
2019-05-30T14:53:13.288Z,93.60
2019-05-30T14:56:01.463Z,93.50
2019-05-30T14:58:46.435Z,93.40
2019-05-30T15:04:23.645Z,93.40
2019-05-30T15:10:21.087Z,93.50
2019-05-30T15:16:51.991Z,93.50
2019-05-30T15:25:44.771Z,94.00
2019-05-30T15:28:40.140Z,94.00
2019-05-30T15:31:10.466Z,94.10
2019-05-30T15:33:41.441Z,94.20
2019-05-30T15:36:12.765Z,94.40
2019-05-30T15:38:43.740Z,94.40
2019-05-30T15:41:15.198Z,94.40
2019-05-30T15:43:47.568Z,94.40
2019-05-30T15:46:18.445Z,94.40
2019-05-30T15:48:49.585Z,94.60
2019-05-30T15:51:20.194Z,94.60
2019-05-30T15:53:50.741Z,94.60
2019-05-30T15:56:21.425Z,94.70
2019-05-30T15:58:52.192Z,94.70
2019-05-30T16:01:24.067Z,95.00
2019-05-30T16:03:54.893Z,95.00
2019-05-30T16:06:25.617Z,95.00
2019-05-30T16:08:56.157Z,94.80
2019-05-30T16:11:26.972Z,94.80
2019-05-30T16:13:57.755Z,94.70
2019-05-30T16:16:39.541Z,94.90
2019-05-30T16:19:15.042Z,95.10
2019-05-30T16:21:33.773Z,95.10
2019-05-30T16:24:05.350Z,95.10
2019-05-30T16:26:36.069Z,95.10
2019-05-30T16:29:10.288Z,95.20
2019-05-30T16:32:01.593Z,95.20
2019-05-30T16:34:32.811Z,95.20
2019-05-30T16:37:03.852Z,95.10
2019-05-30T16:39:34.808Z,95.20
2019-05-30T16:42:06.069Z,95.60
2019-05-30T16:44:38.273Z,95.20
2019-05-30T16:47:09.046Z,95.20
2019-05-30T16:49:39.914Z,95.30
2019-05-30T16:52:10.650Z,95.20
2019-05-30T16:54:41.413Z,95.30
2019-05-30T16:57:11.971Z,95.70
2019-05-30T16:59:42.953Z,95.50
2019-05-30T17:02:14.788Z,95.50
2019-05-30T17:04:46.049Z,95.60
2019-05-30T17:07:17.015Z,95.50
2019-05-30T17:09:48.036Z,95.50
2019-05-30T17:12:19.553Z,95.50
2019-05-30T17:14:50.438Z,95.50
2019-05-30T17:17:22.029Z,95.50
2019-05-30T17:19:53.097Z,95.70
2019-05-30T17:22:24.945Z,95.50
2019-05-30T17:24:55.930Z,95.50
2019-05-30T17:27:27.056Z,95.60
2019-05-30T17:29:57.796Z,95.60
2019-05-30T17:32:28.948Z,95.60
2019-05-30T17:34:59.997Z,95.70
2019-05-30T17:37:31.025Z,96.00
2019-05-30T17:40:01.794Z,95.90
2019-05-30T17:42:32.691Z,95.70
2019-05-30T17:45:03.450Z,95.70
2019-05-30T17:47:34.508Z,95.80
2019-05-30T17:50:06.563Z,95.80
2019-05-30T17:52:37.595Z,95.70
2019-05-30T17:55:08.816Z,95.70
2019-05-30T17:57:39.562Z,95.80
2019-05-30T18:00:11.889Z,95.80
2019-05-30T18:02:43.327Z,95.80
2019-05-30T18:05:14.119Z,95.70
2019-05-30T18:07:44.859Z,95.80
2019-05-30T18:10:15.603Z,96.00
2019-05-30T18:12:46.820Z,95.80
2019-05-30T18:15:17.700Z,95.90
2019-05-30T18:17:48.519Z,95.90
2019-05-30T18:20:21.145Z,95.90
2019-05-30T18:22:52.033Z,96.00
2019-05-30T18:25:23.583Z,95.90
2019-05-30T18:27:56.044Z,96.00
2019-05-30T18:30:28.076Z,96.00
2019-05-30T18:32:58.628Z,95.90
2019-05-30T18:35:30.464Z,96.00
2019-05-30T18:38:01.973Z,96.10
2019-05-30T18:40:36.062Z,96.20
2019-05-30T18:43:06.998Z,96.20
2019-05-30T18:45:43.275Z,96.50
2019-05-30T18:48:14.097Z,96.20
2019-05-30T18:50:46.290Z,96.20
2019-05-30T18:53:17.106Z,96.10
2019-05-30T18:55:47.841Z,96.00
2019-05-30T18:58:18.573Z,96.00
2019-05-30T19:00:49.332Z,96.00
2019-05-30T19:03:20.014Z,96.00
2019-05-30T19:05:50.968Z,95.90
2019-05-30T19:08:21.729Z,96.00
2019-05-30T19:10:52.558Z,96.10
2019-05-30T19:13:23.384Z,96.20
2019-05-30T19:15:54.036Z,96.20
2019-05-30T19:18:25.373Z,96.30
2019-05-30T19:20:56.219Z,96.30
2019-05-30T19:23:27.930Z,96.30
2019-05-30T19:25:58.895Z,96.30
2019-05-30T19:28:30.379Z,96.20
2019-05-30T19:31:01.281Z,96.20
2019-05-30T19:33:32.889Z,96.20
2019-05-30T19:36:04.189Z,96.10
2019-05-30T19:38:35.479Z,96.20
2019-05-30T19:41:06.759Z,96.20
2019-05-30T19:43:38.080Z,96.20
2019-05-30T19:46:08.961Z,96.20
2019-05-30T19:48:39.693Z,96.20
2019-05-30T19:51:10.428Z,96.60
2019-05-30T19:53:41.260Z,96.40
2019-05-30T19:56:12.013Z,96.40
2019-05-30T19:58:42.639Z,96.60
2019-05-30T20:01:13.366Z,96.60
2019-05-30T20:03:47.016Z,96.60
2019-05-30T20:06:16.164Z,96.90
2019-05-30T20:08:55.025Z,96.50
2019-05-30T20:11:18.856Z,96.50
2019-05-30T20:13:49.589Z,96.50
2019-05-30T20:16:20.229Z,96.60
2019-05-30T20:18:51.063Z,96.60
2019-05-30T20:21:21.686Z,96.60
2019-05-30T20:23:56.617Z,96.60
2019-05-30T20:26:24.393Z,96.50
2019-05-30T20:28:55.326Z,96.50
2019-05-30T20:31:26.491Z,96.50
2019-05-30T20:33:57.596Z,96.40
2019-05-30T20:36:28.342Z,96.40
2019-05-30T20:38:59.078Z,96.40
2019-05-30T20:41:29.817Z,96.70
2019-05-30T20:44:00.692Z,96.40
2019-05-30T20:46:31.490Z,96.40
2019-05-30T20:49:02.339Z,96.40
2019-05-30T20:51:34.969Z,96.50
2019-05-30T20:54:05.039Z,96.50
2019-05-30T20:56:35.762Z,96.50
2019-05-30T20:59:09.461Z,96.40
2019-05-30T21:01:39.660Z,96.40
2019-05-30T21:04:10.449Z,96.50
2019-05-30T21:06:41.537Z,96.40
2019-05-30T21:09:27.970Z,96.80
2019-05-30T21:11:44.607Z,96.60
2019-05-30T21:14:16.115Z,96.90
2019-05-30T21:16:47.354Z,96.60
2019-05-30T21:19:17.903Z,96.70
2019-05-30T21:21:48.628Z,97.00
2019-05-30T21:24:19.494Z,97.20
2019-05-30T21:26:50.194Z,97.50
2019-05-30T21:29:20.846Z,97.60
2019-05-30T21:31:51.662Z,97.70
2019-05-30T21:34:22.435Z,97.80
2019-05-30T21:36:53.270Z,97.80
2019-05-30T21:39:24.074Z,97.80
2019-05-30T21:41:54.804Z,97.80
2019-05-30T21:44:25.631Z,97.80
2019-05-30T21:46:58.229Z,97.80
2019-05-30T21:49:29.151Z,97.80
2019-05-30T21:51:59.881Z,97.80
2019-05-30T21:54:30.619Z,97.70
2019-05-30T21:57:01.356Z,97.70
2019-05-30T21:59:32.099Z,97.70
2019-05-30T22:02:02.824Z,97.70
2019-05-30T22:04:33.350Z,97.60
2019-05-30T22:07:04.085Z,97.60
2019-05-30T22:09:34.738Z,97.70
2019-05-30T22:12:05.563Z,97.70
2019-05-30T22:14:36.284Z,97.60
2019-05-30T22:17:07.027Z,97.60
2019-05-30T22:19:37.744Z,97.80
2019-05-30T22:22:08.658Z,97.50
2019-05-30T22:24:39.698Z,97.60
2019-05-30T22:27:10.357Z,97.50
2019-05-30T22:29:42.217Z,97.50
2019-05-30T22:32:13.171Z,97.50
2019-05-30T22:34:44.691Z,97.50
2019-05-30T22:37:15.543Z,97.60
2019-05-30T22:39:46.782Z,97.40
2019-05-30T22:42:18.041Z,97.40
2019-05-30T22:44:48.778Z,97.40
2019-05-30T22:47:19.612Z,97.30
2019-05-30T22:49:50.736Z,97.30
2019-05-30T22:52:21.978Z,97.20
2019-05-30T22:54:53.225Z,97.20
2019-05-30T22:57:24.263Z,97.20
2019-05-30T22:59:57.086Z,97.30
2019-05-30T23:02:28.166Z,97.30
2019-05-30T23:04:58.949Z,97.30
2019-05-30T23:07:29.744Z,97.30
2019-05-30T23:10:00.767Z,97.30
2019-05-30T23:12:31.467Z,97.30
2019-05-30T23:15:02.009Z,97.20
2019-05-30T23:17:32.716Z,97.30
2019-05-30T23:20:03.463Z,97.30
2019-05-30T23:22:34.019Z,97.30
2019-05-30T23:25:06.977Z,97.30
2019-05-30T23:27:37.820Z,97.20
2019-05-30T23:30:08.631Z,97.10
2019-05-30T23:32:39.597Z,96.80
2019-05-30T23:35:10.426Z,96.90
2019-05-30T23:37:41.358Z,96.80
2019-05-30T23:40:12.187Z,96.60
2019-05-30T23:42:43.048Z,96.30
2019-05-30T23:45:13.880Z,96.30
2019-05-30T23:47:44.505Z,95.90
2019-05-30T23:50:16.338Z,95.90
2019-05-30T23:52:47.315Z,95.90
2019-05-30T23:55:18.290Z,95.70
2019-05-30T23:57:50.322Z,95.70
